Time;durP1;ratioP1;P1;durP2;ratioP2;P2;SDS_P1;SDS_P2;PMS_P1;PMS_P2;Temp;Humidity;BMP_temperature;BMP_pressure;BME280_temperature;BME280_humidity;BME280_pressure;Samples;Min_cycle;Max_cycle;Signal;HPM_P1;HPM_P2
2021/09/13 00:00:20;;;;;;;8.73;4.47;;;;;;;23.91;46.96;100956.31;144992;565;6003;-78
2021/09/13 00:02:46;;;;;;;7.37;4.32;;;;;;;23.93;46.89;100953.62;144992;573;6002;-78
2021/09/13 00:05:13;;;;;;;8.00;4.87;;;;;;;23.93;46.40;100962.44;144992;585;6002;-78
2021/09/13 00:07:39;;;;;;;6.82;4.80;;;;;;;23.93;45.90;100959.78;144992;571;6003;-79
2021/09/13 00:10:07;;;;;;;10.57;4.70;;;;;;;23.94;46.25;100956.22;144992;564;6002;-78
2021/09/13 00:12:34;;;;;;;7.82;5.00;;;;;;;23.95;46.64;100965.06;144992;585;6002;-78
2021/09/13 00:15:01;;;;;;;6.85;4.57;;;;;;;23.96;46.18;100961.47;144992;643;6002;-79
2021/09/13 00:17:27;;;;;;;7.20;4.68;;;;;;;23.94;46.71;100963.28;144992;598;6002;-78
2021/09/13 00:19:54;;;;;;;6.60;4.70;;;;;;;23.90;46.73;100963.34;144992;640;6002;-78
2021/09/13 00:22:20;;;;;;;8.05;5.15;;;;;;;23.89;46.28;100964.28;144992;563;6002;-78
2021/09/13 00:24:47;;;;;;;6.93;4.87;;;;;;;23.84;46.82;100958.19;144992;569;6002;-77
2021/09/13 00:27:13;;;;;;;10.10;5.00;;;;;;;23.82;46.66;100961.75;144992;573;6002;-79
2021/09/13 00:29:39;;;;;;;7.45;4.65;;;;;;;23.80;47.09;100961.78;144992;563;6002;-78
2021/09/13 00:32:06;;;;;;;6.28;4.68;;;;;;;23.71;47.22;100962.84;144992;604;6002;-77
2021/09/13 00:34:35;;;;;;;6.75;4.78;;;;;;;23.70;47.10;100961.12;144992;639;6002;-77
2021/09/13 00:37:03;;;;;;;6.57;4.47;;;;;;;23.71;47.34;100967.28;144992;569;6002;-78
2021/09/13 00:39:29;;;;;;;9.65;5.00;;;;;;;23.70;46.86;100961.12;144992;565;6002;-78
2021/09/13 00:41:56;;;;;;;6.78;4.70;;;;;;;23.62;47.19;100956.88;144992;585;6002;-78
2021/09/13 00:44:23;;;;;;;6.78;4.80;;;;;;;23.58;47.69;100955.19;144992;574;6002;-78
2021/09/13 00:46:50;;;;;;;9.30;5.20;;;;;;;23.59;47.36;100960.47;144991;572;6002;-76
2021/09/13 00:49:16;;;;;;;7.03;4.62;;;;;;;23.61;47.64;100957.78;144992;587;6002;-78
2021/09/13 00:51:43;;;;;;;7.47;5.07;;;;;;;23.57;47.24;100961.41;144992;594;6002;-77
2021/09/13 00:54:09;;;;;;;7.47;4.97;;;;;;;23.57;47.74;100962.25;144992;599;6002;-77
2021/09/13 00:56:37;;;;;;;8.27;5.25;;;;;;;23.58;47.51;100958.72;144992;563;6002;-78
2021/09/13 00:59:03;;;;;;;9.65;5.70;;;;;;;23.59;47.61;100956.94;144992;566;6002;-78
2021/09/13 01:01:30;;;;;;;7.60;5.47;;;;;;;23.60;47.30;100962.19;144992;579;6002;-77
2021/09/13 01:03:56;;;;;;;8.13;5.00;;;;;;;23.60;47.57;100950.75;144992;600;6002;-77
2021/09/13 01:06:23;;;;;;;6.10;4.85;;;;;;;23.62;47.83;100959.50;144992;594;6002;-78
2021/09/13 01:08:49;;;;;;;13.50;5.50;;;;;;;23.63;47.34;100962.13;144992;573;6002;-78
2021/09/13 01:11:17;;;;;;;8.63;5.20;;;;;;;23.63;47.66;100967.44;144992;583;6002;-77
2021/09/13 01:13:43;;;;;;;7.80;4.82;;;;;;;23.62;47.54;100960.38;144992;586;6002;-77
2021/09/13 01:16:10;;;;;;;9.85;5.53;;;;;;;23.57;47.21;100962.25;144992;644;6002;-75
2021/09/13 01:18:36;;;;;;;8.57;5.40;;;;;;;23.54;47.79;100962.31;144992;582;6002;-78
2021/09/13 01:21:03;;;;;;;7.03;5.75;;;;;;;23.48;48.03;100962.44;144992;585;6002;-79
2021/09/13 01:23:36;;;;;;;11.00;5.53;;;;;;;23.52;47.64;100970.28;144992;590;6002;-78
2021/09/13 01:26:06;;;;;;;7.60;4.90;;;;;;;23.59;47.82;100971.06;144991;589;6002;-77
2021/09/13 01:28:43;;;;;;;9.20;5.18;;;;;;;23.69;48.13;100962.00;144992;587;6002;-83
2021/09/13 01:31:10;;;;;;;16.00;4.70;;;;;;;23.78;47.53;100958.28;144992;645;6002;-78
2021/09/13 01:33:36;;;;;;;7.68;4.57;;;;;;;23.80;47.29;100959.16;144992;569;6002;-77
2021/09/13 01:36:03;;;;;;;8.13;4.72;;;;;;;23.79;46.79;100968.00;144992;636;6002;-79
2021/09/13 01:38:32;;;;;;;7.03;5.20;;;;;;;23.72;47.64;100964.59;144992;608;6002;-78
2021/09/13 01:40:58;;;;;;;5.45;4.25;;;;;;;23.72;47.35;100974.34;144992;575;6002;-79
2021/09/13 01:43:25;;;;;;;7.05;4.53;;;;;;;23.75;47.10;100968.09;144992;578;6002;-77
2021/09/13 01:45:51;;;;;;;12.32;4.97;;;;;;;23.76;47.10;100968.06;144992;587;6002;-76
2021/09/13 01:48:18;;;;;;;7.85;5.18;;;;;;;23.75;47.21;100961.03;144992;608;6002;-78
2021/09/13 01:50:44;;;;;;;7.03;4.80;;;;;;;23.74;47.20;100964.56;144992;572;6002;-78
2021/09/13 01:53:11;;;;;;;8.88;5.50;;;;;;;23.68;46.15;100962.03;144992;650;6002;-78
2021/09/13 01:55:37;;;;;;;5.97;4.70;;;;;;;23.64;47.42;100970.94;144992;562;6002;-78
2021/09/13 01:58:04;;;;;;;6.20;5.10;;;;;;;23.67;47.59;100960.28;144992;580;6002;-79
2021/09/13 02:00:31;;;;;;;8.38;4.72;;;;;;;23.70;47.20;100960.22;144992;564;6002;-78
2021/09/13 02:02:57;;;;;;;7.85;4.62;;;;;;;23.70;47.36;100963.78;144992;647;6002;-76
2021/09/13 02:05:23;;;;;;;10.27;5.20;;;;;;;23.70;47.09;100962.87;144992;609;6002;-78
2021/09/13 02:07:50;;;;;;;8.25;4.80;;;;;;;23.63;46.33;100959.47;144992;606;6002;-79
2021/09/13 02:10:16;;;;;;;9.30;5.03;;;;;;;23.59;47.32;100957.81;144992;577;6002;-78
2021/09/13 02:12:43;;;;;;;8.70;5.25;;;;;;;23.56;46.40;100963.19;144992;624;6002;-78
2021/09/13 02:15:10;;;;;;;7.37;4.82;;;;;;;23.50;46.49;100958.87;144992;576;6002;-78
2021/09/13 02:17:37;;;;;;;5.90;4.82;;;;;;;23.54;47.24;100964.97;144992;573;6002;-78
2021/09/13 02:20:04;;;;;;;9.02;4.78;;;;;;;23.57;47.29;100964.03;144992;591;6002;-77
2021/09/13 02:22:30;;;;;;;6.07;4.57;;;;;;;23.62;47.22;100954.22;144992;606;6002;-78
2021/09/13 02:24:57;;;;;;;8.30;4.78;;;;;;;23.63;47.41;100964.78;144992;570;6002;-80
2021/09/13 02:27:23;;;;;;;7.90;5.20;;;;;;;23.64;47.29;100955.94;144992;665;6002;-79
2021/09/13 02:29:50;;;;;;;6.40;4.87;;;;;;;23.69;46.99;100961.16;144992;570;6002;-80
2021/09/13 02:32:16;;;;;;;5.62;4.75;;;;;;;23.71;47.20;100957.53;144992;634;6002;-78
2021/09/13 02:34:42;;;;;;;7.75;5.03;;;;;;;23.76;47.18;100957.44;144992;626;6002;-79
2021/09/13 02:37:09;;;;;;;10.18;5.10;;;;;;;23.71;46.01;100959.34;144992;570;6002;-76
2021/09/13 02:39:35;;;;;;;8.25;4.95;;;;;;;23.71;47.11;100957.53;144992;599;6002;-80
2021/09/13 02:42:03;;;;;;;6.15;4.55;;;;;;;23.68;46.93;100962.91;144992;615;6002;-78
2021/09/13 02:44:29;;;;;;;5.87;4.43;;;;;;;23.70;46.78;100961.12;144992;571;6002;-79
2021/09/13 02:46:56;;;;;;;6.65;4.82;;;;;;;23.72;47.13;100958.44;144992;600;6002;-79
2021/09/13 02:49:23;;;;;;;6.25;5.00;;;;;;;23.75;46.71;100952.19;144992;570;6002;-78
2021/09/13 02:51:49;;;;;;;10.40;5.40;;;;;;;23.69;46.69;100954.06;144992;573;6002;-80
2021/09/13 02:54:16;;;;;;;6.32;5.00;;;;;;;23.70;46.99;100947.88;144992;630;6002;-79
2021/09/13 02:56:42;;;;;;;10.00;5.10;;;;;;;23.72;46.91;100951.34;144992;575;6002;-78
2021/09/13 02:59:08;;;;;;;7.80;4.70;;;;;;;23.69;45.57;100947.91;144992;570;6003;-78
2021/09/13 03:01:35;;;;;;;8.52;5.03;;;;;;;23.65;47.06;100952.37;144992;641;6002;-78
2021/09/13 03:04:01;;;;;;;6.87;4.90;;;;;;;23.63;46.98;100954.19;144992;579;6002;-79
2021/09/13 03:06:29;;;;;;;6.15;4.95;;;;;;;23.65;46.97;100949.72;144992;569;6003;-79
2021/09/13 03:08:55;;;;;;;6.12;4.70;;;;;;;23.62;46.55;100947.12;144992;635;6002;-80
2021/09/13 03:11:22;;;;;;;8.68;5.25;;;;;;;23.59;46.92;100948.97;144992;599;6002;-77
2021/09/13 03:13:49;;;;;;;6.82;4.65;;;;;;;23.52;47.22;100948.25;144992;588;6002;-76
2021/09/13 03:16:15;;;;;;;5.45;4.22;;;;;;;23.41;47.08;100961.69;144992;646;6002;-79
2021/09/13 03:18:42;;;;;;;7.95;4.57;;;;;;;23.40;47.27;100964.38;144992;601;6002;-78
2021/09/13 03:21:09;;;;;;;7.10;4.90;;;;;;;23.46;47.03;100962.47;144992;632;6002;-77
2021/09/13 03:23:35;;;;;;;10.05;4.70;;;;;;;23.42;47.07;100960.81;144992;627;6002;-77
2021/09/13 03:26:01;;;;;;;5.25;4.50;;;;;;;23.44;47.09;100961.63;144992;656;6002;-79
2021/09/13 03:28:28;;;;;;;6.55;4.75;;;;;;;23.50;47.00;100961.50;144992;626;6002;-79
2021/09/13 03:30:54;;;;;;;5.78;4.50;;;;;;;23.53;45.62;100965.87;144992;564;6014;-78
2021/09/13 03:33:21;;;;;;;6.10;4.50;;;;;;;23.52;47.10;100970.28;144992;618;6002;-79
2021/09/13 03:35:47;;;;;;;6.43;4.07;;;;;;;23.55;47.05;100964.06;144991;601;6002;-77
2021/09/13 03:38:14;;;;;;;5.70;4.30;;;;;;;23.55;46.33;100970.25;144992;617;6002;-78
2021/09/13 03:40:40;;;;;;;8.65;4.43;;;;;;;23.58;46.53;100971.09;144992;620;6002;-77
2021/09/13 03:43:07;;;;;;;5.35;4.10;;;;;;;23.61;46.56;100968.38;144992;631;6002;-78
2021/09/13 03:45:33;;;;;;;5.35;4.15;;;;;;;23.64;46.50;100965.66;144992;592;6002;-80
2021/09/13 03:48:00;;;;;;;4.65;4.20;;;;;;;23.66;46.61;100977.09;144992;627;6002;-77
2021/09/13 03:50:26;;;;;;;7.62;4.45;;;;;;;23.68;46.70;100976.16;144992;571;6002;-77
2021/09/13 03:52:52;;;;;;;5.03;4.18;;;;;;;23.70;46.20;100978.78;144992;577;6002;-78
2021/09/13 03:55:19;;;;;;;5.32;4.18;;;;;;;23.69;46.59;100985.87;144992;604;6002;-79
2021/09/13 03:57:46;;;;;;;9.70;5.18;;;;;;;23.70;46.13;100989.37;144992;577;6002;-77
2021/09/13 04:00:13;;;;;;;6.75;5.00;;;;;;;23.72;46.62;100991.09;144992;592;6002;-78
2021/09/13 04:02:43;;;;;;;6.28;4.90;;;;;;;23.72;46.44;100991.09;144992;566;6002;-78
2021/09/13 04:05:13;;;;;;;7.20;5.00;;;;;;;23.73;46.22;100997.25;144992;591;6002;-78
2021/09/13 04:10:42;;;;;;;9.93;6.25;;;;;;;23.71;46.25;100992.00;144992;571;6004;-78
2021/09/13 04:13:09;;;;;;;7.15;4.50;;;;;;;23.69;46.41;100992.94;144992;567;6004;-77
2021/09/13 04:15:36;;;;;;;6.07;4.80;;;;;;;23.66;46.61;100987.72;144992;572;6004;-77
2021/09/13 04:18:02;;;;;;;7.07;4.70;;;;;;;23.65;46.45;100986.81;144992;589;6013;-78
2021/09/13 04:20:28;;;;;;;6.18;4.93;;;;;;;23.67;46.73;100984.12;144992;597;6004;-77
2021/09/13 04:22:55;;;;;;;6.53;5.00;;;;;;;23.64;46.49;100997.44;144992;592;6004;-79
2021/09/13 04:25:22;;;;;;;5.62;4.82;;;;;;;23.60;46.50;100995.78;144992;579;6004;-78
2021/09/13 04:27:48;;;;;;;10.63;5.20;;;;;;;23.59;46.42;101000.22;144992;652;6004;-76
2021/09/13 04:30:15;;;;;;;6.87;5.40;;;;;;;23.60;46.59;101004.59;144992;616;6004;-78
2021/09/13 04:32:41;;;;;;;8.32;5.32;;;;;;;23.63;46.55;101003.66;144992;583;6004;-78
2021/09/13 04:35:08;;;;;;;8.35;5.35;;;;;;;23.65;46.76;101004.50;144992;573;6004;-78
2021/09/13 04:37:35;;;;;;;10.57;4.75;;;;;;;23.66;46.38;101004.47;144992;563;6004;-79
2021/09/13 04:40:02;;;;;;;9.35;5.60;;;;;;;23.59;46.74;101007.28;144992;570;6004;-79
2021/09/13 04:42:28;;;;;;;11.40;5.62;;;;;;;23.49;47.06;101006.59;144992;587;6004;-76
2021/09/13 04:44:55;;;;;;;10.85;5.65;;;;;;;23.46;46.83;101007.50;144992;604;6004;-77
2021/09/13 04:47:21;;;;;;;8.48;4.90;;;;;;;23.49;46.95;101004.78;144992;637;6004;-78
2021/09/13 04:49:48;;;;;;;9.95;5.62;;;;;;;23.53;46.66;100998.53;144992;613;6004;-76
2021/09/13 04:52:14;;;;;;;7.75;5.45;;;;;;;23.55;46.57;101004.69;144992;592;6004;-79
2021/09/13 04:54:41;;;;;;;7.95;5.22;;;;;;;23.61;46.85;101005.50;144992;668;6004;-79
2021/09/13 04:57:07;;;;;;;7.47;5.25;;;;;;;23.64;46.74;101010.69;144992;575;6004;-79
2021/09/13 04:59:34;;;;;;;6.22;4.93;;;;;;;23.65;46.48;101007.16;144992;574;6004;-79
2021/09/13 05:02:00;;;;;;;11.90;5.50;;;;;;;23.69;46.77;101015.00;144992;574;6004;-77
2021/09/13 05:04:27;;;;;;;8.98;5.30;;;;;;;23.72;46.75;101006.13;144993;585;6000;-77
2021/09/13 05:06:53;;;;;;;8.18;5.43;;;;;;;23.76;46.41;101013.09;144993;617;6002;-75
2021/09/13 05:09:20;;;;;;;10.57;5.68;;;;;;;23.80;46.41;101009.50;144992;635;6002;-77
2021/09/13 05:11:46;;;;;;;6.75;5.50;;;;;;;23.87;46.87;101018.22;144993;573;6002;-76
2021/09/13 05:14:13;;;;;;;10.18;5.55;;;;;;;23.88;46.86;101015.53;144993;583;6002;-76
2021/09/13 05:16:40;;;;;;;13.95;6.10;;;;;;;23.90;46.80;101019.03;144993;565;6002;-78
2021/09/13 05:19:06;;;;;;;9.02;5.43;;;;;;;23.89;46.63;101027.91;144993;615;6002;-78
2021/09/13 05:21:36;;;;;;;10.07;5.68;;;;;;;23.91;46.73;101019.94;144993;593;6002;-78
2021/09/13 05:24:03;;;;;;;9.63;5.90;;;;;;;23.95;46.37;101026.87;144993;574;6002;-76
2021/09/13 05:26:29;;;;;;;9.77;5.37;;;;;;;24.01;46.33;101017.94;144993;590;6002;-77
2021/09/13 05:28:56;;;;;;;10.85;5.80;;;;;;;24.04;46.71;101021.41;144993;578;6002;-74
2021/09/13 05:31:22;;;;;;;9.68;6.20;;;;;;;24.10;46.79;101017.75;144993;580;6002;-75
2021/09/13 05:33:48;;;;;;;14.48;6.95;;;;;;;24.14;46.48;101016.75;144993;607;6002;-80
2021/09/13 05:36:15;;;;;;;10.80;7.18;;;;;;;24.18;46.60;101020.22;144992;604;6002;-77
2021/09/13 05:38:42;;;;;;;12.00;6.93;;;;;;;24.23;46.46;101021.88;144992;586;6002;-75
2021/09/13 05:41:08;;;;;;;11.20;7.87;;;;;;;24.28;46.61;101019.13;144992;640;6002;-79
2021/09/13 05:43:35;;;;;;;12.35;7.68;;;;;;;24.32;46.13;101020.78;144991;588;6002;-79
2021/09/13 05:46:01;;;;;;;12.93;8.90;;;;;;;24.35;46.39;101020.72;144992;590;6002;-80
2021/09/13 05:48:28;;;;;;;17.25;8.20;;;;;;;24.30;46.78;101024.38;144992;572;6002;-79
2021/09/13 05:50:54;;;;;;;17.87;8.88;;;;;;;24.29;46.61;101022.63;144993;582;6002;-79
2021/09/13 05:53:20;;;;;;;14.10;7.25;;;;;;;24.25;46.34;101027.13;144993;564;6002;-80
2021/09/13 05:55:47;;;;;;;10.40;7.35;;;;;;;24.12;46.33;101028.34;144993;566;6002;-78
2021/09/13 05:58:13;;;;;;;11.68;7.40;;;;;;;24.04;47.21;101024.06;144993;595;6002;-78
2021/09/13 06:00:40;;;;;;;10.40;6.25;;;;;;;24.03;47.30;101030.25;144993;604;6002;-79
2021/09/13 06:03:08;;;;;;;13.77;7.00;;;;;;;23.99;47.39;101027.69;144993;608;6002;-80
2021/09/13 06:05:35;;;;;;;9.68;5.50;;;;;;;24.00;47.15;101034.75;144993;585;6003;-79
2021/09/13 06:08:02;;;;;;;10.13;5.15;;;;;;;24.01;47.32;101036.50;144993;605;6002;-80
2021/09/13 06:10:28;;;;;;;7.53;5.87;;;;;;;23.99;47.20;101039.19;144993;566;6002;-79
2021/09/13 06:12:55;;;;;;;12.80;7.78;;;;;;;24.07;47.38;101039.03;144993;610;6002;-79
2021/09/13 06:15:22;;;;;;;14.18;10.13;;;;;;;24.19;47.22;101030.78;144993;579;6002;-78
2021/09/13 06:17:48;;;;;;;14.02;10.27;;;;;;;24.30;46.97;101041.16;144993;569;6002;-79
2021/09/13 06:20:15;;;;;;;16.80;10.68;;;;;;;24.35;47.11;101039.28;144993;578;6002;-79
2021/09/13 06:22:42;;;;;;;14.20;9.80;;;;;;;24.45;46.90;101045.28;144993;631;6002;-78
2021/09/13 06:25:09;;;;;;;13.45;7.15;;;;;;;24.55;46.79;101044.16;144993;663;6002;-78
2021/09/13 06:27:35;;;;;;;14.98;7.43;;;;;;;24.61;46.82;101043.19;144993;572;6002;-77
2021/09/13 06:30:02;;;;;;;12.20;7.60;;;;;;;24.65;46.46;101044.81;144993;588;6002;-78
2021/09/13 06:32:28;;;;;;;9.75;6.53;;;;;;;24.63;46.56;101052.81;144993;643;6002;-80
2021/09/13 06:34:54;;;;;;;11.25;6.43;;;;;;;24.61;44.70;101053.78;144993;587;6002;-80
2021/09/13 06:37:22;;;;;;;10.57;7.30;;;;;;;24.62;46.51;101061.72;144993;615;6002;-79
2021/09/13 06:39:49;;;;;;;10.30;7.12;;;;;;;24.57;46.78;101055.62;144993;587;6002;-77
2021/09/13 06:42:15;;;;;;;11.05;7.10;;;;;;;24.57;45.43;101052.09;144993;580;6002;-78
2021/09/13 06:44:45;;;;;;;11.48;6.75;;;;;;;24.47;46.79;101058.47;144994;570;5002;-79
2021/09/13 06:47:22;;;;;;;10.82;7.40;;;;;;;24.43;46.45;101061.22;144994;570;5002;-78
2021/09/13 06:49:50;;;;;;;13.00;7.90;;;;;;;24.38;45.84;101059.56;144994;587;5002;-79
2021/09/13 06:52:16;;;;;;;11.90;9.38;;;;;;;24.33;45.80;101061.47;144994;564;5002;-80
2021/09/13 06:54:42;;;;;;;14.13;10.02;;;;;;;24.30;45.56;101065.03;144994;573;5002;-81
2021/09/13 06:57:09;;;;;;;11.98;9.65;;;;;;;24.27;46.80;101070.41;144994;591;5002;-79
2021/09/13 06:59:35;;;;;;;11.02;9.43;;;;;;;24.35;46.57;101075.56;144994;641;5002;-79
2021/09/13 07:02:02;;;;;;;8.73;6.62;;;;;;;24.41;46.35;101070.13;144994;585;5002;-79
2021/09/13 07:04:30;;;;;;;12.05;7.95;;;;;;;24.49;46.37;101069.94;144994;631;5003;-80
2021/09/13 07:06:56;;;;;;;13.40;9.77;;;;;;;24.50;43.58;101061.97;144994;570;5002;-77
2021/09/13 07:09:23;;;;;;;9.77;8.32;;;;;;;24.58;46.56;101075.09;144994;610;5002;-80
2021/09/13 07:11:49;;;;;;;9.18;7.03;;;;;;;24.64;43.89;101066.97;144993;594;5002;-79
2021/09/13 07:14:16;;;;;;;10.93;6.85;;;;;;;24.76;46.27;101065.81;144994;579;5002;-79
2021/09/13 07:16:42;;;;;;;11.65;7.10;;;;;;;24.90;45.82;101070.81;144994;577;5002;-79
2021/09/13 07:19:08;;;;;;;9.73;6.60;;;;;;;25.08;46.26;101061.50;144994;600;5002;-79
2021/09/13 07:21:35;;;;;;;9.38;6.82;;;;;;;25.32;46.05;101068.00;144994;643;5002;-80
2021/09/13 07:24:02;;;;;;;9.88;7.10;;;;;;;25.59;45.63;101061.06;144994;592;5002;-78
2021/09/13 07:26:28;;;;;;;12.20;7.10;;;;;;;25.81;44.96;101061.34;144994;593;5002;-79
2021/09/13 07:28:55;;;;;;;9.63;8.15;;;;;;;26.03;44.37;101058.13;144994;580;5002;-79
2021/09/13 07:31:21;;;;;;;9.07;7.43;;;;;;;26.24;44.76;101049.47;144994;909;5002;-79
2021/09/13 07:33:48;;;;;;;7.10;5.65;;;;;;;26.47;43.64;101055.00;144994;584;5002;-77
2021/09/13 07:36:14;;;;;;;6.62;5.05;;;;;;;26.63;43.70;101061.63;144994;646;5002;-77
2021/09/13 07:38:41;;;;;;;6.45;4.95;;;;;;;26.75;43.53;101066.56;144994;622;5002;-79
2021/09/13 07:41:07;;;;;;;5.70;3.78;;;;;;;26.71;38.56;101051.63;144994;563;5002;-79
2021/09/13 07:43:34;;;;;;;4.87;3.95;;;;;;;26.79;43.79;101072.69;144994;711;5002;-81
2021/09/13 07:46:00;;;;;;;6.55;3.72;;;;;;;26.85;42.37;101066.25;144994;601;5002;-80
2021/09/13 07:48:27;;;;;;;6.85;3.80;;;;;;;26.84;39.48;101064.53;144994;663;5002;-82
2021/09/13 07:50:53;;;;;;;6.03;3.62;;;;;;;26.82;39.33;101064.59;144994;582;5002;-80
2021/09/13 07:53:19;;;;;;;6.07;3.70;;;;;;;26.85;41.92;101071.59;144994;564;5002;-80
2021/09/13 07:55:46;;;;;;;5.50;3.53;;;;;;;26.94;40.07;101071.28;144994;592;5002;-80
2021/09/13 07:58:12;;;;;;;4.55;3.78;;;;;;;27.11;39.59;101076.06;144994;570;5002;-79
2021/09/13 08:00:39;;;;;;;6.05;3.78;;;;;;;27.32;41.82;101079.81;144994;578;5002;-79
2021/09/13 08:03:05;;;;;;;5.75;4.37;;;;;;;27.47;39.87;101073.97;144994;593;5002;-79
2021/09/13 08:05:32;;;;;;;5.05;3.90;;;;;;;27.55;34.90;101070.13;144994;571;5002;-81
2021/09/13 08:07:58;;;;;;;4.12;3.60;;;;;;;27.58;35.79;101075.38;144994;581;5002;-79
2021/09/13 08:10:24;;;;;;;5.05;3.67;;;;;;;27.71;39.49;101091.78;144994;599;5002;-79
2021/09/13 08:12:51;;;;;;;4.00;3.60;;;;;;;27.80;34.87;101083.47;144994;636;5002;-78
2021/09/13 08:15:17;;;;;;;5.37;3.90;;;;;;;27.98;40.88;101093.50;144994;598;5002;-79
2021/09/13 08:17:44;;;;;;;7.60;4.15;;;;;;;28.11;36.89;101093.91;144994;569;5002;-79
2021/09/13 08:20:11;;;;;;;7.15;3.78;;;;;;;28.19;37.40;101094.50;144994;677;5002;-79
2021/09/13 08:22:37;;;;;;;8.15;4.90;;;;;;;28.21;34.58;101089.09;144994;590;5002;-79
2021/09/13 08:25:04;;;;;;;6.00;4.18;;;;;;;28.16;38.63;101099.94;144994;740;5002;-79
2021/09/13 08:27:31;;;;;;;5.37;4.10;;;;;;;28.16;35.28;101094.59;144994;667;5002;-78
2021/09/13 08:29:57;;;;;;;8.38;5.50;;;;;;;28.18;36.42;101100.75;144994;663;5002;-80
2021/09/13 08:32:23;;;;;;;5.75;4.10;;;;;;;28.23;34.03;101103.25;144994;619;5002;-79
2021/09/13 08:34:51;;;;;;;7.18;4.15;;;;;;;28.33;36.80;101095.75;144994;603;5002;-80
2021/09/13 08:37:17;;;;;;;6.12;3.58;;;;;;;28.45;37.88;101089.06;144994;697;5002;-80
2021/09/13 08:39:44;;;;;;;6.37;3.83;;;;;;;28.48;36.59;101089.81;144994;575;5002;-79
2021/09/13 08:42:11;;;;;;;6.47;3.87;;;;;;;28.52;35.12;101096.78;144994;677;5002;-75
2021/09/13 08:44:39;;;;;;;4.85;3.97;;;;;;;28.51;33.87;101092.38;144994;592;5002;-78
2021/09/13 08:50:07;;;;;;;5.60;3.97;;;;;;;28.47;33.27;101085.41;144994;591;5004;-79
2021/09/13 08:52:34;;;;;;;8.43;3.90;;;;;;;28.55;37.04;101093.97;144994;571;5004;-79
2021/09/13 08:55:01;;;;;;;6.22;3.58;;;;;;;28.58;35.97;101091.22;144994;571;5004;-80
2021/09/13 08:57:31;;;;;;;8.27;4.80;;;;;;;28.55;37.77;101091.31;144994;579;5004;-82
2021/09/13 08:59:57;;;;;;;9.43;3.58;;;;;;;28.55;35.24;101096.62;144994;590;5004;-79
2021/09/13 09:02:26;;;;;;;4.28;3.28;;;;;;;28.63;37.22;101091.03;144994;593;5004;-75
2021/09/13 09:04:55;;;;;;;4.82;4.00;;;;;;;28.76;37.81;101088.72;144994;581;4999;-78
2021/09/13 09:07:23;;;;;;;6.18;3.60;;;;;;;28.77;37.01;101087.81;144994;604;5004;-75
2021/09/13 09:10:12;;;;;;;4.97;3.55;;;;;;;28.82;36.40;101091.16;144994;716;5004;-77
2021/09/13 09:13:00;;;;;;;7.93;3.60;;;;;;;28.98;37.95;101079.84;144994;583;5004;-77
2021/09/13 09:15:28;;;;;;;7.25;3.70;;;;;;;29.02;34.18;101073.47;144994;576;5002;-77
2021/09/13 09:18:00;;;;;;;5.25;3.53;;;;;;;29.07;36.20;101076.81;144994;609;5002;-77
2021/09/13 09:20:27;;;;;;;3.72;3.37;;;;;;;29.12;35.37;101078.34;144994;668;5002;-74
2021/09/13 09:23:04;;;;;;;5.57;3.78;;;;;;;29.24;36.29;101079.66;144994;581;5002;-76
2021/09/13 09:25:33;;;;;;;5.30;3.80;;;;;;;29.28;37.49;101086.59;144994;572;5002;-78
2021/09/13 09:28:03;;;;;;;4.28;3.42;;;;;;;29.07;34.75;101077.66;144994;580;5002;-78
2021/09/13 09:30:41;;;;;;;5.15;3.67;;;;;;;28.83;38.11;101082.22;144994;571;5002;-76
2021/09/13 09:33:15;;;;;;;4.82;3.75;;;;;;;28.53;34.18;101074.47;144994;596;5002;-79
2021/09/13 09:35:50;;;;;;;7.03;4.05;;;;;;;28.32;34.58;101088.69;144994;655;5002;-78
2021/09/13 09:38:47;;;;;;;5.70;4.20;;;;;;;28.33;36.29;101079.72;144994;563;5002;-79
2021/09/13 09:41:18;;;;;;;5.00;3.65;;;;;;;28.37;34.57;101081.37;144994;580;5004;-78
2021/09/13 09:44:00;;;;;;;6.00;3.83;;;;;;;28.45;34.55;101091.75;144994;569;5004;-79
2021/09/13 09:46:43;;;;;;;7.03;3.60;;;;;;;28.50;33.26;101090.63;144994;645;5004;-78
2021/09/13 09:49:18;;;;;;;6.90;3.70;;;;;;;28.54;35.13;101094.94;144994;575;5004;-77
2021/09/13 09:52:02;;;;;;;5.45;3.80;;;;;;;28.51;33.00;101097.72;144994;575;5004;-76
2021/09/13 09:54:29;;;;;;;5.20;3.60;;;;;;;28.40;34.04;101100.78;144994;661;5004;-79
2021/09/13 09:57:09;;;;;;;4.32;3.70;;;;;;;28.42;36.11;101100.75;144994;658;5004;-78
2021/09/13 09:59:42;;;;;;;7.45;3.75;;;;;;;28.47;36.54;101108.56;144994;568;5004;-77
2021/09/13 10:02:16;;;;;;;9.07;3.90;;;;;;;28.50;34.66;101097.78;144994;567;5004;-76
2021/09/13 10:04:47;;;;;;;7.85;3.87;;;;;;;28.55;35.59;101107.31;144994;647;5004;-79
2021/09/13 10:07:16;;;;;;;4.00;3.60;;;;;;;28.67;35.88;101099.81;144994;565;5004;-78
2021/09/13 10:09:44;;;;;;;4.50;4.07;;;;;;;28.73;33.79;101092.41;144994;590;5004;-77
2021/09/13 10:12:11;;;;;;;6.03;3.97;;;;;;;28.74;33.17;101088.81;144994;634;5004;-79
2021/09/13 10:14:38;;;;;;;5.10;4.40;;;;;;;28.83;35.67;101098.25;144994;737;5004;-79
2021/09/13 10:17:07;;;;;;;4.93;4.15;;;;;;;28.91;35.49;101090.78;144994;594;5004;-75
2021/09/13 10:19:35;;;;;;;8.05;3.72;;;;;;;29.09;33.32;101089.16;144994;585;5004;-77
2021/09/13 10:22:01;;;;;;;4.57;3.65;;;;;;;29.14;34.61;101094.31;144994;568;5004;-80
2021/09/13 10:24:32;;;;;;;5.80;4.28;;;;;;;29.20;32.71;101096.75;144994;571;5004;-78
2021/09/13 10:27:11;;;;;;;5.37;4.85;;;;;;;29.35;33.83;101097.03;144994;582;5004;-77
2021/09/13 10:29:37;;;;;;;4.97;4.35;;;;;;;29.43;34.14;101092.22;144994;571;5004;-78
2021/09/13 10:32:07;;;;;;;6.95;4.70;;;;;;;29.58;34.56;101099.59;144994;582;5004;-79
2021/09/13 10:35:00;;;;;;;7.00;4.37;;;;;;;29.63;31.52;101081.53;144994;592;5004;-76
2021/09/13 10:37:42;;;;;;;8.00;4.75;;;;;;;29.73;31.60;101089.12;144994;575;5002;-77
2021/09/13 10:40:28;;;;;;;6.45;4.65;;;;;;;29.83;33.91;101093.19;144994;670;5002;-79
2021/09/13 10:43:16;;;;;;;8.00;4.20;;;;;;;29.81;33.08;101093.25;144994;585;5002;-80
2021/09/13 10:45:42;;;;;;;6.93;4.82;;;;;;;29.86;34.38;101101.09;144994;580;5002;-80
2021/09/13 10:48:20;;;;;;;5.85;4.30;;;;;;;29.87;34.66;101099.25;144994;570;5002;-76
2021/09/13 10:50:57;;;;;;;8.10;4.45;;;;;;;29.81;33.71;101092.38;144994;580;5002;-77
2021/09/13 10:53:33;;;;;;;6.57;4.37;;;;;;;29.81;33.14;101087.91;144994;580;5002;-78
2021/09/13 10:56:03;;;;;;;8.35;5.05;;;;;;;29.89;34.52;101097.38;144994;585;5004;-78
2021/09/13 10:58:51;;;;;;;6.22;4.50;;;;;;;29.89;29.11;101092.91;144994;609;5004;-78
2021/09/13 11:01:30;;;;;;;8.77;4.37;;;;;;;29.81;32.76;101093.25;144994;599;5002;-81
2021/09/13 11:04:15;;;;;;;5.30;4.72;;;;;;;29.72;30.82;101090.09;144994;624;5004;-81
2021/09/13 11:06:44;;;;;;;6.85;4.62;;;;;;;29.66;28.56;101085.88;144994;624;5004;-77
2021/09/13 11:09:14;;;;;;;7.70;5.32;;;;;;;29.69;32.27;101079.53;144994;587;5004;-77
2021/09/13 11:11:44;;;;;;;38.25;20.48;;;;;;;29.73;31.09;101087.31;144994;576;5004;-81
2021/09/13 11:14:22;;;;;;;12.37;7.00;;;;;;;29.82;31.96;101083.41;144994;571;5004;-73
2021/09/13 11:16:55;;;;;;;8.27;4.93;;;;;;;29.85;31.25;101077.94;144994;587;5004;-75
2021/09/13 11:19:23;;;;;;;10.43;5.05;;;;;;;29.73;30.23;101078.44;144994;610;4578;-76
2021/09/13 11:22:01;;;;;;;6.05;4.75;;;;;;;29.59;28.34;101073.69;144994;618;4574;-80
2021/09/13 11:24:30;;;;;;;7.32;4.75;;;;;;;29.54;31.10;101073.94;144994;584;4574;-78
2021/09/13 11:27:01;;;;;;;6.75;5.03;;;;;;;29.55;29.16;101064.94;144992;581;6004;-80
2021/09/13 11:29:48;;;;;;;6.82;5.65;;;;;;;29.60;31.12;101057.59;144992;626;6004;-80
2021/09/13 11:32:17;;;;;;;6.47;5.03;;;;;;;29.65;31.26;101066.28;144992;596;6004;-77
2021/09/13 11:34:49;;;;;;;8.93;4.87;;;;;;;29.77;30.81;101064.84;144992;595;6004;-78
2021/09/13 11:37:26;;;;;;;10.75;5.32;;;;;;;29.82;30.76;101056.66;144992;609;6004;-79
2021/09/13 11:39:57;;;;;;;8.23;5.65;;;;;;;29.89;31.96;101060.81;144992;596;6004;-79
2021/09/13 11:42:28;;;;;;;9.35;4.78;;;;;;;29.94;31.88;101055.22;144992;608;6004;-78